Time;durP1;ratioP1;P1;durP2;ratioP2;P2;SDS_P1;SDS_P2;PMS_P1;PMS_P2;Temp;Humidity;BMP_temperature;BMP_pressure;BME280_temperature;BME280_humidity;BME280_pressure;Samples;Min_cycle;Max_cycle;Signal;HPM_P1;HPM_P2
2021/04/17 00:01:59;;;;;;;5.68;2.10;;;;;;;2.20;68.48;101679.13;5082203;28;20053;-80
2021/04/17 00:04:26;;;;;;;9.60;3.58;;;;;;;2.32;67.90;101671.84;5094124;28;20020;-80
2021/04/17 00:06:52;;;;;;;6.68;2.13;;;;;;;2.30;67.65;101668.38;5093504;28;20028;-80
2021/04/17 00:09:23;;;;;;;9.73;2.65;;;;;;;2.32;67.30;101665.88;5077773;28;20541;-81
2021/04/17 00:11:49;;;;;;;7.97;2.70;;;;;;;2.14;68.51;101668.69;5077689;28;20037;-81
2021/04/17 00:14:23;;;;;;;7.55;2.38;;;;;;;2.17;68.55;101663.66;5078813;28;20365;-81
2021/04/17 00:16:49;;;;;;;7.88;2.63;;;;;;;2.17;68.76;101663.66;5094760;28;20495;-82
2021/04/17 00:19:14;;;;;;;6.85;2.25;;;;;;;2.17;68.43;101658.53;5078339;28;20029;-82
2021/04/17 00:21:39;;;;;;;7.30;2.45;;;;;;;2.15;68.90;101660.16;5093986;28;20052;-81
2021/04/17 00:24:05;;;;;;;8.30;2.63;;;;;;;2.21;68.07;101660.38;5094341;28;20038;-81
2021/04/17 00:26:31;;;;;;;9.48;2.40;;;;;;;2.23;67.94;101651.06;5077067;28;20024;-81
2021/04/17 00:28:57;;;;;;;7.05;2.40;;;;;;;2.21;68.23;101650.13;5077364;28;20017;-81
2021/04/17 00:31:22;;;;;;;8.20;2.67;;;;;;;2.18;69.12;101647.47;5078323;28;20055;-81
2021/04/17 00:33:48;;;;;;;7.65;2.35;;;;;;;2.16;69.13;101654.25;5077952;28;20032;-81
2021/04/17 00:36:13;;;;;;;8.38;2.45;;;;;;;2.11;69.99;101648.97;5076962;28;20021;-82
2021/04/17 00:38:38;;;;;;;7.93;2.28;;;;;;;2.18;69.21;101643.22;5077367;28;20032;-81
2021/04/17 00:41:04;;;;;;;8.45;2.50;;;;;;;2.28;68.73;101649.53;5093587;28;20404;-81
2021/04/17 00:43:30;;;;;;;7.78;2.75;;;;;;;2.31;68.93;101649.66;5077023;28;20078;-81
2021/04/17 00:45:55;;;;;;;9.38;2.83;;;;;;;2.36;68.02;101648.09;5094239;28;20044;-82
2021/04/17 00:48:21;;;;;;;11.25;2.67;;;;;;;2.43;67.54;101644.03;5076486;28;20433;-81
2021/04/17 00:50:47;;;;;;;6.45;2.60;;;;;;;2.59;67.20;101655.66;5076363;28;20544;-81
2021/04/17 00:53:12;;;;;;;7.00;2.28;;;;;;;2.69;66.49;101644.88;5093379;28;20032;-81
2021/04/17 00:55:37;;;;;;;9.15;2.50;;;;;;;2.75;67.02;101645.06;5077842;28;20024;-81
2021/04/17 00:58:04;;;;;;;9.00;2.25;;;;;;;2.75;66.95;101645.94;5077723;28;20060;-82
2021/04/17 01:00:32;;;;;;;7.43;2.20;;;;;;;2.84;66.79;101637.66;5093463;28;20024;-82
2021/04/17 01:03:25;;;;;;;8.55;3.03;;;;;;;2.92;66.76;101643.88;5077647;28;20100;-82
2021/04/17 01:05:55;;;;;;;8.98;2.30;;;;;;;2.96;66.46;101634.63;5094012;28;20020;-81
2021/04/17 01:08:39;;;;;;;7.90;2.45;;;;;;;2.92;67.29;101638.75;5093242;28;20104;-82
2021/04/17 01:11:12;;;;;;;8.50;2.42;;;;;;;2.95;67.20;101633.72;5077146;28;20124;-81
2021/04/17 01:13:37;;;;;;;6.80;2.63;;;;;;;2.97;66.89;101634.66;5077633;28;20024;-81
2021/04/17 01:16:04;;;;;;;8.38;2.30;;;;;;;2.98;66.17;101638.94;5078989;28;20023;-81
2021/04/17 01:18:32;;;;;;;8.32;2.50;;;;;;;3.03;66.60;101631.41;5076883;28;20029;-81
2021/04/17 01:20:58;;;;;;;8.15;2.42;;;;;;;3.05;65.80;101626.31;5092797;28;20161;-81
2021/04/17 01:23:40;;;;;;;7.50;2.35;;;;;;;3.06;65.92;101630.63;5077195;28;20492;-81
2021/04/17 01:26:24;;;;;;;7.97;2.83;;;;;;;3.01;66.82;101630.47;5075640;28;20029;-82
2021/04/17 01:28:56;;;;;;;6.88;2.58;;;;;;;2.92;67.07;101632.75;5075708;28;20019;-81
2021/04/17 01:31:27;;;;;;;11.98;2.63;;;;;;;2.86;67.22;101627.44;5077802;28;20485;-81
2021/04/17 01:33:56;;;;;;;7.88;2.00;;;;;;;2.82;67.18;101633.31;5078986;28;20032;-81
2021/04/17 01:36:24;;;;;;;9.15;2.53;;;;;;;2.66;67.90;101627.72;5081074;28;20024;-82
2021/04/17 01:38:56;;;;;;;9.20;2.28;;;;;;;2.56;68.56;101632.53;5081629;28;20040;-81
2021/04/17 01:41:30;;;;;;;10.15;2.30;;;;;;;2.47;68.57;101628.84;5081061;28;20048;-81
2021/04/17 01:43:59;;;;;;;6.30;2.17;;;;;;;2.41;69.64;101628.63;5080718;28;20043;-81
2021/04/17 01:46:26;;;;;;;6.53;2.13;;;;;;;2.32;69.96;101627.47;5097715;28;20457;-81
2021/04/17 01:49:01;;;;;;;7.15;2.25;;;;;;;2.19;70.81;101631.31;5096553;28;20107;-81
2021/04/17 01:51:28;;;;;;;10.57;2.53;;;;;;;2.14;71.05;101626.03;5080628;28;20089;-81
2021/04/17 01:53:56;;;;;;;8.52;2.78;;;;;;;2.14;71.13;101623.47;5080592;28;20400;-82
2021/04/17 01:56:23;;;;;;;7.03;2.30;;;;;;;2.15;71.35;101624.34;5096129;28;20028;-81
2021/04/17 01:58:50;;;;;;;9.25;2.20;;;;;;;2.14;71.96;101622.63;5078746;28;20032;-81
2021/04/17 02:01:19;;;;;;;9.85;2.45;;;;;;;2.16;71.49;101621.84;5080919;28;20050;-81
2021/04/17 02:03:46;;;;;;;9.02;2.65;;;;;;;2.19;72.57;101621.09;5079957;28;20405;-81
2021/04/17 02:06:12;;;;;;;10.90;2.80;;;;;;;2.36;70.89;101613.94;5095834;28;20031;-81
2021/04/17 02:08:38;;;;;;;8.07;3.08;;;;;;;2.38;69.97;101613.19;5080596;28;20095;-80
2021/04/17 02:11:04;;;;;;;8.43;2.70;;;;;;;2.53;70.28;101611.09;5078889;28;20025;-81
2021/04/17 02:13:30;;;;;;;9.43;2.67;;;;;;;2.54;70.34;101605.16;5080628;28;20024;-81
2021/04/17 02:16:04;;;;;;;7.65;2.40;;;;;;;2.70;69.42;101603.06;5081746;28;20165;-81
2021/04/17 02:18:35;;;;;;;6.47;2.22;;;;;;;2.78;69.43;101598.19;5078470;28;20441;-80
2021/04/17 02:21:05;;;;;;;10.55;2.67;;;;;;;2.87;68.86;101603.59;5095127;28;20028;-81
2021/04/17 02:23:31;;;;;;;6.97;2.20;;;;;;;2.86;69.04;101596.72;5080115;28;20473;-81
2021/04/17 02:25:57;;;;;;;6.20;2.20;;;;;;;2.85;69.45;101598.41;5079716;28;20039;-81
2021/04/17 02:28:24;;;;;;;8.27;2.40;;;;;;;2.82;69.71;101593.19;5095632;28;20024;-81
2021/04/17 02:30:50;;;;;;;7.80;2.60;;;;;;;2.79;69.55;101598.22;5079189;28;20022;-81
2021/04/17 02:33:15;;;;;;;8.95;2.55;;;;;;;2.87;70.06;101594.22;5080150;28;20052;-81
2021/04/17 02:35:40;;;;;;;8.63;2.47;;;;;;;2.89;69.70;101589.97;5079608;28;20063;-81
2021/04/17 02:38:06;;;;;;;7.32;2.35;;;;;;;2.94;69.51;101590.13;5095430;28;20035;-80
2021/04/17 02:40:31;;;;;;;7.93;2.42;;;;;;;2.95;70.29;101590.16;5078177;28;20520;-81
2021/04/17 02:42:56;;;;;;;5.25;1.70;;;;;;;2.97;69.92;101575.72;5095207;28;20499;-80
2021/04/17 02:45:22;;;;;;;8.50;2.05;;;;;;;2.99;69.12;101580.91;5095254;28;20033;-81
2021/04/17 02:47:47;;;;;;;10.00;2.38;;;;;;;2.96;68.92;101584.22;5078261;28;20042;-81
2021/04/17 02:50:12;;;;;;;8.68;1.98;;;;;;;3.03;68.57;101575.03;5078974;28;20035;-81
2021/04/17 02:52:38;;;;;;;5.90;2.15;;;;;;;3.08;68.34;101567.44;5078340;28;20492;-81
2021/04/17 02:55:04;;;;;;;6.72;2.00;;;;;;;3.10;68.43;101568.38;5079694;28;20020;-81
2021/04/17 02:57:29;;;;;;;9.13;2.45;;;;;;;3.11;67.86;101564.97;5079174;28;20111;-81
2021/04/17 02:59:55;;;;;;;6.32;2.28;;;;;;;3.10;68.21;101561.53;5079062;28;20056;-80
2021/04/17 03:02:20;;;;;;;8.77;2.22;;;;;;;3.12;67.69;101564.16;5095124;28;20032;-81
2021/04/17 03:04:45;;;;;;;8.77;2.45;;;;;;;3.11;67.71;101568.44;5079310;28;20043;-81
2021/04/17 03:07:10;;;;;;;6.63;2.03;;;;;;;3.13;67.46;101559.06;5094717;28;20024;-81
2021/04/17 03:09:36;;;;;;;8.77;2.22;;;;;;;3.09;68.07;101559.81;5094572;28;20024;-80
2021/04/17 03:12:01;;;;;;;7.20;1.98;;;;;;;3.08;67.81;101558.09;5095287;28;20028;-81
2021/04/17 03:14:26;;;;;;;7.07;2.47;;;;;;;3.12;67.93;101554.78;5079324;28;20025;-81
2021/04/17 03:16:52;;;;;;;8.60;2.10;;;;;;;3.12;67.74;101553.91;5079918;28;20036;-81
2021/04/17 03:19:17;;;;;;;6.68;2.00;;;;;;;3.10;68.00;101545.31;5094614;28;20051;-81
2021/04/17 03:21:42;;;;;;;8.80;2.40;;;;;;;3.12;67.46;101548.78;5094730;28;20024;-81
2021/04/17 03:24:08;;;;;;;8.07;2.60;;;;;;;3.07;67.58;101547.78;5094284;28;20457;-81
2021/04/17 03:26:33;;;;;;;13.00;2.13;;;;;;;3.05;67.66;101542.63;5078598;28;20043;-80
2021/04/17 03:28:59;;;;;;;9.68;2.17;;;;;;;3.06;67.36;101538.38;5077296;28;20388;-80
2021/04/17 03:31:24;;;;;;;11.15;2.40;;;;;;;3.04;68.15;101545.13;5076750;28;20027;-81
2021/04/17 03:33:49;;;;;;;8.45;2.45;;;;;;;3.07;67.64;101534.97;5094358;28;20024;-81
2021/04/17 03:36:15;;;;;;;7.18;2.35;;;;;;;3.04;68.15;101542.56;5078922;28;20080;-81
2021/04/17 03:38:40;;;;;;;6.75;2.33;;;;;;;3.02;67.99;101541.66;5078399;28;20032;-80
2021/04/17 03:41:06;;;;;;;7.72;2.20;;;;;;;2.95;68.00;101535.47;5095025;28;20031;-81
2021/04/17 03:43:31;;;;;;;9.90;2.35;;;;;;;2.91;68.33;101536.22;5078995;28;20078;-80
2021/04/17 03:45:56;;;;;;;7.72;2.13;;;;;;;2.81;69.57;101534.25;5079545;28;20020;-80
2021/04/17 03:48:22;;;;;;;10.90;2.60;;;;;;;2.76;69.21;101537.50;5076810;28;20031;-80
2021/04/17 03:50:47;;;;;;;7.35;2.40;;;;;;;2.68;69.41;101543.22;5093740;28;20028;-81
2021/04/17 03:53:12;;;;;;;9.38;2.63;;;;;;;2.64;69.26;101542.28;5094034;28;20021;-80
2021/04/17 03:55:38;;;;;;;8.15;2.65;;;;;;;2.54;69.86;101541.13;5093579;28;20060;-80
2021/04/17 03:58:03;;;;;;;10.30;3.17;;;;;;;2.40;71.05;101544.97;5076678;28;20081;-80
2021/04/17 04:00:29;;;;;;;9.18;2.17;;;;;;;2.40;70.67;101536.41;5076300;28;20036;-80
2021/04/17 04:02:54;;;;;;;7.47;2.17;;;;;;;2.26;71.64;101548.78;5077482;28;20028;-80
2021/04/17 04:05:20;;;;;;;16.10;2.25;;;;;;;2.18;71.92;101552.78;5093358;28;20051;-81
2021/04/17 04:07:46;;;;;;;11.18;2.63;;;;;;;2.14;71.48;101551.81;5077219;28;20024;-81
2021/04/17 04:10:12;;;;;;;9.25;2.72;;;;;;;2.17;71.43;101543.38;5093387;28;20077;-80
2021/04/17 04:12:42;;;;;;;6.95;2.20;;;;;;;2.11;71.36;101546.59;5076775;28;20039;-80
2021/04/17 04:15:12;;;;;;;6.53;2.22;;;;;;;1.98;71.85;101558.13;5078215;28;20131;-80
2021/04/17 04:17:37;;;;;;;11.98;2.60;;;;;;;2.02;71.88;101554.84;5077178;28;20020;-81
2021/04/17 04:20:04;;;;;;;9.43;2.50;;;;;;;2.04;71.68;101557.47;5076160;28;20025;-80
2021/04/17 04:22:29;;;;;;;8.65;2.75;;;;;;;2.00;72.57;101553.94;5076147;28;20073;-80
2021/04/17 04:24:55;;;;;;;9.05;2.70;;;;;;;1.96;72.44;101558.91;5075866;28;20020;-81
2021/04/17 04:27:20;;;;;;;7.00;2.70;;;;;;;1.99;71.69;101549.63;5092668;28;20145;-80
2021/04/17 04:29:45;;;;;;;7.05;2.55;;;;;;;1.97;72.11;101548.72;5092056;28;20037;-80
2021/04/17 04:32:10;;;;;;;8.70;2.65;;;;;;;1.96;72.26;101554.66;5077509;28;20111;-80
2021/04/17 04:34:36;;;;;;;11.85;2.58;;;;;;;1.99;72.22;101548.75;5092699;28;20035;-80
2021/04/17 04:37:01;;;;;;;6.13;2.20;;;;;;;2.02;72.48;101551.44;5092670;28;20630;-80
2021/04/17 04:39:26;;;;;;;8.38;2.95;;;;;;;2.01;72.86;101549.69;5077062;28;20032;-80
2021/04/17 04:41:52;;;;;;;9.85;3.10;;;;;;;2.12;71.77;101548.34;5092724;28;20484;-80
2021/04/17 04:44:17;;;;;;;10.07;2.90;;;;;;;2.13;72.53;101555.22;5092787;28;20031;-80
2021/04/17 04:46:42;;;;;;;5.40;2.28;;;;;;;2.24;71.91;101550.41;5092902;28;20044;-80
2021/04/17 04:49:07;;;;;;;7.80;2.40;;;;;;;2.26;71.61;101552.22;5092469;28;20085;-80
2021/04/17 04:51:32;;;;;;;9.18;2.50;;;;;;;2.33;71.95;101544.72;5092874;28;20020;-80
2021/04/17 04:53:58;;;;;;;7.68;2.55;;;;;;;2.42;71.69;101552.69;5092159;28;20054;-80
2021/04/17 04:56:24;;;;;;;7.75;2.80;;;;;;;2.49;71.28;101549.50;5075676;28;20391;-80
2021/04/17 04:58:50;;;;;;;8.50;2.90;;;;;;;2.56;71.11;101553.13;5091877;28;20032;-80
2021/04/17 05:01:15;;;;;;;8.70;2.65;;;;;;;2.60;71.50;101547.28;5092328;28;20032;-80
2021/04/17 05:03:40;;;;;;;9.15;2.80;;;;;;;2.69;70.73;101544.97;5092279;28;20028;-80
2021/04/17 05:06:06;;;;;;;9.20;2.78;;;;;;;2.70;71.08;101550.13;5093217;28;20465;-80
2021/04/17 05:08:31;;;;;;;5.20;2.13;;;;;;;2.73;70.56;101545.09;5093605;28;20021;-80
2021/04/17 05:10:56;;;;;;;8.82;2.60;;;;;;;2.72;70.46;101552.75;5097275;28;20107;-80
2021/04/17 05:13:22;;;;;;;8.80;2.70;;;;;;;2.75;70.62;101547.72;5081791;28;20029;-80
2021/04/17 05:15:47;;;;;;;8.00;2.60;;;;;;;2.76;70.42;101544.34;5096612;28;20477;-80
2021/04/17 05:18:12;;;;;;;8.88;2.70;;;;;;;2.83;69.84;101536.00;5080749;28;20029;-80
2021/04/17 05:20:37;;;;;;;10.65;2.63;;;;;;;2.87;70.04;101553.22;5080366;28;20032;-80
2021/04/17 05:23:03;;;;;;;7.32;2.58;;;;;;;2.82;70.29;101541.09;5081001;28;20051;-80
2021/04/17 05:25:28;;;;;;;10.68;2.90;;;;;;;2.89;70.11;101548.13;5080441;28;20021;-80
2021/04/17 05:27:53;;;;;;;10.70;2.80;;;;;;;2.94;69.59;101541.44;5096096;28;20484;-80
2021/04/17 05:30:19;;;;;;;11.70;3.03;;;;;;;2.92;70.39;101540.53;5080571;28;20039;-80
2021/04/17 05:32:45;;;;;;;11.75;2.70;;;;;;;2.95;70.62;101541.47;5080614;28;20052;-80
2021/04/17 05:35:10;;;;;;;6.60;2.60;;;;;;;3.02;69.28;101541.66;5096148;28;20028;-81
2021/04/17 05:37:35;;;;;;;9.10;2.80;;;;;;;3.11;69.85;101539.34;5080591;28;20020;-81
2021/04/17 05:40:02;;;;;;;8.93;2.67;;;;;;;3.15;69.28;101533.50;5096000;28;20024;-80
2021/04/17 05:42:27;;;;;;;6.80;2.50;;;;;;;3.15;69.81;101536.94;5079137;28;20020;-80
2021/04/17 05:44:52;;;;;;;7.15;2.88;;;;;;;3.18;68.95;101536.16;5080651;28;20384;-80
2021/04/17 05:47:17;;;;;;;9.25;2.28;;;;;;;3.23;69.30;101539.69;5080336;28;20045;-80
2021/04/17 05:49:43;;;;;;;9.73;3.10;;;;;;;3.29;68.41;101534.72;5080106;28;20040;-80
2021/04/17 05:52:08;;;;;;;6.43;2.35;;;;;;;3.33;68.85;101534.00;5080093;28;20024;-80
2021/04/17 05:54:33;;;;;;;8.75;2.53;;;;;;;3.51;68.58;101533.63;5079951;28;20170;-80
2021/04/17 05:56:58;;;;;;;9.35;2.65;;;;;;;3.62;68.82;101532.19;5095251;28;20020;-80
2021/04/17 05:59:24;;;;;;;6.60;2.35;;;;;;;3.74;68.61;101525.66;5078399;28;20033;-80
2021/04/17 06:01:49;;;;;;;9.80;3.00;;;;;;;3.74;67.72;101523.94;5096037;28;20016;-81
2021/04/17 06:04:14;;;;;;;6.85;2.53;;;;;;;3.81;68.06;101525.81;5095560;28;20025;-80
2021/04/17 06:06:40;;;;;;;9.25;3.20;;;;;;;3.92;67.59;101521.84;5078449;28;20119;-80
2021/04/17 06:09:06;;;;;;;9.27;2.92;;;;;;;3.88;67.55;101525.16;5080251;28;20028;-80
2021/04/17 06:11:31;;;;;;;7.20;2.45;;;;;;;3.80;67.69;101511.28;5079483;28;20029;-81
2021/04/17 06:13:56;;;;;;;9.20;3.03;;;;;;;3.84;67.61;101520.78;5079929;28;20025;-80
2021/04/17 06:16:22;;;;;;;8.00;2.63;;;;;;;3.87;67.27;101522.53;5095621;28;20043;-81
2021/04/17 06:18:47;;;;;;;6.68;2.40;;;;;;;4.02;66.91;101517.78;5095585;28;20416;-80
2021/04/17 06:21:12;;;;;;;8.30;2.40;;;;;;;4.02;66.56;101519.50;5078327;28;20025;-80
2021/04/17 06:23:38;;;;;;;7.57;2.72;;;;;;;4.19;66.31;101515.63;5079413;28;20020;-80
2021/04/17 06:26:03;;;;;;;7.80;2.40;;;;;;;4.56;65.54;101509.63;5077929;28;20112;-81
2021/04/17 06:28:30;;;;;;;10.38;2.72;;;;;;;4.68;64.58;101510.69;5078731;28;20062;-80
2021/04/17 06:30:56;;;;;;;9.18;2.63;;;;;;;5.06;63.63;101514.06;5077990;28;20024;-80
2021/04/17 06:33:21;;;;;;;10.40;2.28;;;;;;;5.49;62.41;101517.44;5078579;28;20515;-80
2021/04/17 06:35:46;;;;;;;9.38;2.53;;;;;;;5.52;62.27;101517.50;5079378;28;20509;-80
2021/04/17 06:38:14;;;;;;;10.07;2.50;;;;;;;5.40;63.23;101512.13;5094328;28;20031;-80
2021/04/17 06:40:40;;;;;;;7.15;2.70;;;;;;;5.13;63.67;101513.34;5078755;28;20024;-80
2021/04/17 06:43:06;;;;;;;5.60;2.30;;;;;;;4.92;64.16;101515.47;5078381;28;20392;-80
2021/04/17 06:45:34;;;;;;;6.53;2.35;;;;;;;4.79;64.62;101509.22;5077677;28;20399;-80
2021/04/17 06:48:02;;;;;;;5.95;2.58;;;;;;;5.13;64.22;101502.19;5077738;28;20047;-79
2021/04/17 06:50:28;;;;;;;7.68;2.85;;;;;;;5.50;62.81;101498.59;5093196;28;20476;-80
2021/04/17 06:52:55;;;;;;;7.00;2.50;;;;;;;5.28;63.29;101493.06;5077588;28;20035;-79
2021/04/17 06:55:21;;;;;;;7.90;3.45;;;;;;;5.32;63.76;101488.81;5093351;28;20066;-80
2021/04/17 06:57:47;;;;;;;10.07;3.15;;;;;;;5.53;63.63;101503.78;5077690;28;20485;-80
2021/04/17 07:00:13;;;;;;;8.98;2.70;;;;;;;5.52;62.98;101495.22;5094167;28;20085;-81
2021/04/17 07:02:39;;;;;;;7.15;2.45;;;;;;;5.66;63.32;101504.88;5078459;28;20032;-81
2021/04/17 07:05:05;;;;;;;9.50;3.10;;;;;;;5.59;63.73;101505.59;5078404;28;20028;-81
2021/04/17 07:07:32;;;;;;;5.88;2.50;;;;;;;5.50;64.15;101493.44;5078540;28;20020;-81
2021/04/17 07:09:57;;;;;;;9.10;2.35;;;;;;;5.60;63.40;101500.47;5078267;28;20024;-81
2021/04/17 07:12:23;;;;;;;6.75;2.63;;;;;;;5.68;63.12;101487.75;5094224;28;20031;-80
2021/04/17 07:14:50;;;;;;;8.88;2.83;;;;;;;5.74;63.87;101478.41;5079337;28;20027;-80
2021/04/17 07:17:16;;;;;;;7.47;2.75;;;;;;;5.69;63.39;101481.75;5078147;28;20463;-81
2021/04/17 07:19:56;;;;;;;6.25;2.38;;;;;;;5.96;62.69;101471.06;5076428;28;20073;-80
2021/04/17 07:22:27;;;;;;;8.30;2.50;;;;;;;5.84;64.01;101479.44;5077552;28;20046;-80
2021/04/17 07:24:54;;;;;;;8.38;2.50;;;;;;;5.73;63.24;101476.69;5077356;28;20060;-79
2021/04/17 07:27:50;;;;;;;6.72;2.80;;;;;;;5.71;64.78;101480.09;5077957;28;20035;-80
2021/04/17 07:30:15;;;;;;;6.50;3.13;;;;;;;6.40;62.49;101478.56;5063484;28;20472;-80
2021/04/17 07:33:14;;;;;;;7.97;2.75;;;;;;;6.23;62.59;101492.09;5093338;28;20027;-80
2021/04/17 07:35:45;;;;;;;8.30;3.45;;;;;;;6.86;60.79;101477.44;5069698;28;20036;-80
2021/04/17 07:38:16;;;;;;;7.90;3.05;;;;;;;7.19;59.97;101481.25;5076101;28;20024;-80
2021/04/17 07:40:45;;;;;;;8.25;2.50;;;;;;;7.45;58.14;101473.78;5078031;28;20078;-80
2021/04/17 07:43:11;;;;;;;8.07;3.05;;;;;;;8.02;56.25;101474.22;5093821;28;20028;-80
2021/04/17 07:45:40;;;;;;;7.50;2.35;;;;;;;7.41;58.06;101477.16;5075286;28;20078;-79
2021/04/17 07:48:27;;;;;;;8.40;2.83;;;;;;;7.46;57.53;101472.91;5075082;28;20114;-79
2021/04/17 07:50:54;;;;;;;12.52;4.60;;;;;;;7.67;57.16;101468.81;5091207;28;20038;-78
2021/04/17 07:53:31;;;;;;;7.47;2.83;;;;;;;8.06;56.37;101463.91;5074612;28;20450;-78
2021/04/17 07:56:16;;;;;;;7.97;2.60;;;;;;;8.32;55.71;101463.22;5091900;28;20032;-78
2021/04/17 07:58:50;;;;;;;10.45;2.92;;;;;;;9.76;51.88;101458.47;5091381;28;20032;-78
2021/04/17 08:01:16;;;;;;;7.63;2.28;;;;;;;11.23;47.55;101451.91;5091963;28;20048;-80
2021/04/17 08:03:43;;;;;;;9.35;2.58;;;;;;;11.77;46.48;101444.59;5098205;22;20564;-79
2021/04/17 08:06:09;;;;;;;6.93;3.00;;;;;;;11.32;47.72;101448.41;5075501;28;20032;-79
2021/04/17 08:08:35;;;;;;;7.85;2.72;;;;;;;11.29;46.48;101459.66;5075697;28;20475;-79
2021/04/17 08:11:01;;;;;;;11.52;2.85;;;;;;;11.79;44.73;101460.16;5074895;28;20074;-79
2021/04/17 08:13:27;;;;;;;7.60;2.88;;;;;;;12.11;45.19;101458.16;5075170;28;20033;-79
2021/04/17 08:15:52;;;;;;;9.45;2.70;;;;;;;12.14;44.63;101455.53;5073910;28;20089;-80
2021/04/17 08:18:17;;;;;;;5.75;2.17;;;;;;;12.63;43.55;101456.72;5090756;28;20059;-81
2021/04/17 08:20:43;;;;;;;8.68;2.55;;;;;;;12.21;42.96;101457.19;5074334;28;20028;-80
2021/04/17 08:23:09;;;;;;;10.30;2.47;;;;;;;11.84;43.67;101456.66;5075523;28;20487;-80
2021/04/17 08:25:35;;;;;;;7.45;2.60;;;;;;;11.86;43.83;101454.06;5075515;28;20036;-80
2021/04/17 08:28:00;;;;;;;8.63;2.42;;;;;;;11.86;43.17;101454.06;5074495;28;20020;-79
2021/04/17 08:30:27;;;;;;;6.20;2.35;;;;;;;11.97;42.61;101453.06;5075123;28;20032;-79
2021/04/17 08:32:54;;;;;;;7.47;2.35;;;;;;;10.90;43.24;101459.06;5074552;28;20021;-80
2021/04/17 08:35:23;;;;;;;6.72;2.00;;;;;;;12.11;43.40;101465.97;5073681;28;20033;-79
2021/04/17 08:37:52;;;;;;;9.30;2.45;;;;;;;11.75;42.92;101460.19;5090849;28;20507;-80
2021/04/17 08:40:35;;;;;;;7.25;2.40;;;;;;;12.27;42.18;101456.25;5074574;28;20029;-80
2021/04/17 08:43:02;;;;;;;6.72;2.28;;;;;;;11.42;42.13;101463.03;5073910;28;20028;-80
2021/04/17 08:45:27;;;;;;;7.65;2.30;;;;;;;12.10;39.39;101464.25;5073304;28;20025;-80
2021/04/17 08:47:53;;;;;;;8.13;2.30;;;;;;;10.58;42.61;101470.41;5090168;28;20027;-81
2021/04/17 08:50:32;;;;;;;7.55;2.10;;;;;;;11.12;41.17;101465.00;5072999;28;20024;-80
2021/04/17 08:53:10;;;;;;;6.10;1.92;;;;;;;11.48;38.44;101460.41;5073772;28;20032;-79
2021/04/17 08:55:35;;;;;;;6.30;1.90;;;;;;;12.11;41.54;101455.56;5073985;28;20021;-79
2021/04/17 08:58:21;;;;;;;7.83;2.37;;;;;;;12.60;40.29;101455.00;5089083;28;20090;-79
2021/04/17 09:00:52;;;;;;;6.35;2.35;;;;;;;13.33;39.95;101449.69;5089495;28;20120;-80
2021/04/17 09:03:45;;;;;;;9.32;2.22;;;;;;;13.46;38.66;101453.84;5089143;28;20086;-79
2021/04/17 09:06:33;;;;;;;8.70;2.53;;;;;;;13.69;37.49;101439.56;5063778;28;20400;-79
2021/04/17 09:09:16;;;;;;;5.65;1.95;;;;;;;13.97;37.23;101440.78;5073402;28;20023;-79
2021/04/17 09:12:05;;;;;;;5.60;1.88;;;;;;;12.23;37.29;101446.78;5073758;28;20119;-79
2021/04/17 09:14:33;;;;;;;5.25;1.73;;;;;;;11.77;38.30;101443.72;5064305;28;20488;-80
2021/04/17 09:17:03;;;;;;;8.65;1.90;;;;;;;11.92;38.64;101446.22;5089293;28;20123;-80
2021/04/17 09:19:38;;;;;;;5.32;1.75;;;;;;;11.17;38.96;101445.03;5074040;28;20436;-80
2021/04/17 09:22:22;;;;;;;5.20;1.45;;;;;;;11.58;37.21;101438.69;5073786;28;20547;-80
2021/04/17 09:24:47;;;;;;;7.15;1.33;;;;;;;9.34;42.21;101444.63;5072806;28;20028;-80
2021/04/17 09:27:33;;;;;;;4.85;1.52;;;;;;;12.44;37.14;101441.31;5089228;28;20503;-80
2021/04/17 09:30:19;;;;;;;4.30;1.83;;;;;;;12.18;37.45;101441.59;5073302;28;20033;-80
2021/04/17 09:32:49;;;;;;;5.60;1.92;;;;;;;12.87;36.55;101437.31;5090053;28;20460;-80
2021/04/17 09:35:21;;;;;;;8.02;1.90;;;;;;;12.77;37.10;101439.16;5072973;28;20028;-80
2021/04/17 09:38:05;;;;;;;8.05;1.77;;;;;;;12.89;36.87;101440.75;5090242;28;20032;-80
2021/04/17 09:40:33;;;;;;;4.20;1.73;;;;;;;13.52;35.44;101427.69;5073960;28;20029;-80
2021/04/17 09:42:59;;;;;;;5.53;2.10;;;;;;;13.75;35.71;101429.03;5089553;28;20130;-80
2021/04/17 09:45:39;;;;;;;6.97;1.80;;;;;;;13.15;36.18;101437.78;5089865;28;20024;-80
2021/04/17 09:48:07;;;;;;;4.35;1.20;;;;;;;11.90;38.16;101432.38;5091127;28;20025;-82
2021/04/17 09:50:34;;;;;;;8.30;3.08;;;;;;;11.38;39.54;101432.78;5077026;28;20031;-82
2021/04/17 09:53:29;;;;;;;5.43;1.70;;;;;;;13.66;36.16;101429.19;5091212;28;20027;-80
2021/04/17 09:56:01;;;;;;;9.65;2.00;;;;;;;13.09;37.94;101428.31;5071947;28;20040;-80
2021/04/17 09:58:32;;;;;;;5.72;2.00;;;;;;;13.28;38.17;101428.06;5081778;28;20070;-81
2021/04/17 10:01:14;;;;;;;6.28;1.77;;;;;;;12.82;36.99;101431.31;5094159;28;20017;-82
2021/04/17 10:03:41;;;;;;;5.45;1.70;;;;;;;13.55;38.39;101421.56;5077097;28;20055;-82
2021/04/17 10:06:26;;;;;;;6.80;2.15;;;;;;;13.41;38.09;101419.16;5078154;28;20473;-82
2021/04/17 10:08:51;;;;;;;6.85;1.80;;;;;;;13.94;37.24;101419.13;5079315;28;20029;-82
2021/04/17 10:11:25;;;;;;;7.57;2.50;;;;;;;13.41;37.09;101419.16;5079437;28;20029;-82
2021/04/17 10:13:51;;;;;;;4.45;1.40;;;;;;;13.56;36.74;101416.31;5095048;28;20103;-82
2021/04/17 10:16:25;;;;;;;6.95;2.47;;;;;;;13.63;36.12;101418.81;5080494;28;20452;-82
2021/04/17 10:18:51;;;;;;;5.05;1.50;;;;;;;13.10;37.28;101409.19;5095600;28;20024;-83
2021/04/17 10:21:22;;;;;;;5.75;1.70;;;;;;;13.05;37.17;101415.34;5095083;28;20522;-83
2021/04/17 10:24:19;;;;;;;8.48;2.22;;;;;;;13.19;38.88;101407.34;5078538;28;20020;-83
2021/04/17 10:26:57;;;;;;;7.80;2.28;;;;;;;14.57;34.89;101405.75;5079879;28;20481;-82
2021/04/17 10:29:53;;;;;;;5.50;2.00;;;;;;;13.88;35.65;101404.44;5095089;28;20537;-82
2021/04/17 10:32:23;;;;;;;7.68;1.90;;;;;;;14.85;34.05;101394.69;5062017;28;20039;-84
2021/04/17 10:35:03;;;;;;;6.47;1.80;;;;;;;13.86;36.37;101389.75;5097929;28;20108;-84
2021/04/17 10:37:37;;;;;;;3.88;1.40;;;;;;;13.02;36.34;101384.16;5081390;28;20088;-83
2021/04/17 10:40:11;;;;;;;7.82;1.92;;;;;;;12.81;37.31;101396.63;5080213;28;20024;-83
2021/04/17 10:42:43;;;;;;;5.38;1.77;;;;;;;13.32;37.78;101381.09;5093937;28;20092;-82
2021/04/17 10:45:09;;;;;;;5.03;1.65;;;;;;;13.32;36.37;101377.63;5094077;28;20123;-82
2021/04/17 10:47:34;;;;;;;4.38;1.42;;;;;;;12.13;38.76;101386.19;5094172;28;20017;-82
2021/04/17 10:50:18;;;;;;;2.78;0.95;;;;;;;12.05;39.10;101384.56;5077272;28;20426;-82
2021/04/17 10:52:55;;;;;;;4.65;1.55;;;;;;;11.61;40.86;101381.50;5094228;28;20048;-82
2021/04/17 10:55:35;;;;;;;4.65;1.48;;;;;;;14.63;35.04;101376.91;5078213;28;20020;-83
2021/04/17 10:58:01;;;;;;;4.55;1.30;;;;;;;14.69;34.26;101374.16;5093143;28;20404;-82
2021/04/17 11:00:31;;;;;;;5.75;1.55;;;;;;;14.83;34.41;101378.19;5094132;28;20020;-83
2021/04/17 11:02:57;;;;;;;6.07;1.27;;;;;;;13.32;37.24;101377.63;5078986;28;20161;-83
2021/04/17 11:05:27;;;;;;;4.40;1.60;;;;;;;13.07;37.64;101377.13;5079445;28;20129;-83
2021/04/17 11:08:00;;;;;;;5.18;2.03;;;;;;;15.51;35.25;101375.66;5078391;28;20017;-82
2021/04/17 11:10:34;;;;;;;5.85;2.13;;;;;;;15.77;34.34;101367.19;5094109;28;20043;-83
2021/04/17 11:13:00;;;;;;;6.43;1.55;;;;;;;16.66;32.99;101363.78;5077802;28;20028;-83
2021/04/17 11:15:27;;;;;;;5.50;1.88;;;;;;;14.63;35.27;101365.59;5076910;28;20035;-82
2021/04/17 11:18:15;;;;;;;7.03;1.85;;;;;;;15.64;32.86;101368.41;5078248;28;20048;-81
2021/04/17 11:20:58;;;;;;;5.95;1.90;;;;;;;15.56;34.65;101358.13;5079066;28;20020;-84
2021/04/17 11:23:29;;;;;;;4.30;1.70;;;;;;;12.91;39.15;101373.91;5096585;28;20024;-83
2021/04/17 11:25:55;;;;;;;3.92;1.58;;;;;;;14.00;36.52;101365.09;5094680;28;20508;-83
2021/04/17 11:28:20;;;;;;;5.85;2.10;;;;;;;15.90;35.19;101362.47;5093626;28;20032;-83
2021/04/17 11:30:45;;;;;;;6.63;1.77;;;;;;;15.52;34.47;101359.09;5093927;28;20023;-83
2021/04/17 11:33:11;;;;;;;8.50;2.67;;;;;;;15.12;35.43;101367.09;5095652;28;20507;-83
2021/04/17 11:35:36;;;;;;;4.95;1.92;;;;;;;15.50;34.72;101358.28;5094694;28;20040;-82
2021/04/17 11:38:02;;;;;;;10.10;1.77;;;;;;;14.07;36.40;101367.59;5094075;28;20496;-83